< < Back
Terminal Aerodrome Forecast


Current Version              Previous Versions:   1  2  3  4  5  6  7  8  9  

Terminal Aerodrome Forecast

044
FTUS42 KILM 280834 CCA
TAFFLO
TAF COR
KFLO 280834Z 2806/2906 19004KT P6SM SCT010 BKN090 OVC200
      TEMPO 2809/2813 00000KT 3SM BR BKN010
     FM281300 21005KT P6SM SCT015 SCT250
     FM281600 24007KT P6SM VCTS SCT040CB BKN060
      TEMPO 2817/2821 VRB15G25KT 4SM -TSRA BR BKN035CB OVC050
     FM282100 25006KT P6SM VCTS SCT040CB OVC060
      TEMPO 2821/2824 VRB15G25KT 4SM -TSRA BR BKN030CB OVC045
     FM290000 19004KT P6SM VCSH SCT030 BKN250=



Latest METAR

878
SAUS70 KWBC 282200 RRA
MTRFLO
METAR KFLO 282153Z 24003KT 10SM BKN009 26/23 A2992 RMK AO2 SLP130
T02610228


USA.gov is the U.S. government's official web portal to all federal, state and local government web resources and services.